createdAt,value
2019-01-03T00:03:57.716Z,1.10
2019-01-03T00:09:13.307Z,1.30
2019-01-03T00:14:40.027Z,1.50
2019-01-03T00:20:07.096Z,1.70
2019-01-03T00:25:20.164Z,2.00
2019-01-03T00:30:49.501Z,2.20
2019-01-03T00:36:08.349Z,2.30
2019-01-03T00:41:15.397Z,2.50
2019-01-03T00:46:32.435Z,2.60
2019-01-03T00:51:45.185Z,2.70
2019-01-03T00:57:15.712Z,2.80
2019-01-03T01:02:30.790Z,2.90
2019-01-03T01:07:58.919Z,2.90
2019-01-03T01:13:11.674Z,2.90
2019-01-03T01:18:28.772Z,2.90
2019-01-03T01:23:41.868Z,2.90
2019-01-03T01:28:56.204Z,2.90
2019-01-03T01:34:09.000Z,2.90
2019-01-03T01:39:22.509Z,2.90
2019-01-03T01:44:39.888Z,2.90
2019-01-03T01:50:04.548Z,2.90
2019-01-03T01:55:18.881Z,3.00
2019-01-03T02:00:33.692Z,3.00
2019-01-03T02:05:53.815Z,3.10
2019-01-03T02:11:06.646Z,3.10
2019-01-03T02:16:39.294Z,3.20
2019-01-03T02:22:02.635Z,3.20
2019-01-03T02:27:19.769Z,3.20
2019-01-03T02:32:32.532Z,3.20
2019-01-03T02:37:49.926Z,3.30
2019-01-03T02:43:01.474Z,3.30
2019-01-03T02:48:28.031Z,3.30
2019-01-03T02:53:40.797Z,3.30
2019-01-03T02:58:57.943Z,3.30
2019-01-03T03:04:07.691Z,3.30
2019-01-03T03:09:20.696Z,3.20
2019-01-03T03:14:36.885Z,3.30
2019-01-03T03:19:50.056Z,3.30
2019-01-03T03:25:03.087Z,3.30
2019-01-03T03:30:23.858Z,3.30
2019-01-03T03:35:30.965Z,3.30
2019-01-03T03:40:43.730Z,3.30
2019-01-03T03:45:57.728Z,3.30
2019-01-03T03:51:26.999Z,3.40
2019-01-03T03:56:49.914Z,3.40
2019-01-03T04:02:04.230Z,3.30
2019-01-03T04:07:18.640Z,3.30
2019-01-03T04:12:23.770Z,3.40
2019-01-03T04:17:32.296Z,3.40
2019-01-03T04:22:42.792Z,3.40
2019-01-03T04:27:50.547Z,3.40
2019-01-03T04:33:03.555Z,3.50
2019-01-03T04:38:23.962Z,3.50
2019-01-03T04:43:35.499Z,3.60
2019-01-03T04:48:49.843Z,3.60
2019-01-03T04:54:07.775Z,3.60
2019-01-03T04:59:22.149Z,3.70
2019-01-03T05:04:37.015Z,3.70
2019-01-03T05:10:06.465Z,3.80
2019-01-03T05:15:22.863Z,3.80
2019-01-03T05:20:35.866Z,3.90
2019-01-03T05:25:48.847Z,3.80
2019-01-03T05:30:59.293Z,3.80
2019-01-03T05:36:12.062Z,3.80
2019-01-03T05:41:32.416Z,3.80
2019-01-03T05:46:58.574Z,3.90
2019-01-03T05:52:12.889Z,3.90
2019-01-03T05:57:29.248Z,3.90
2019-01-03T06:02:43.578Z,3.80
2019-01-03T06:07:56.314Z,3.80
2019-01-03T06:13:21.594Z,3.80
2019-01-03T06:18:34.327Z,3.80
2019-01-03T06:23:54.679Z,3.80
2019-01-03T06:29:17.945Z,3.80
2019-01-03T06:34:44.285Z,3.60
2019-01-03T06:40:10.736Z,3.50
2019-01-03T06:45:23.700Z,3.50
2019-01-03T06:50:41.035Z,3.60
2019-01-03T06:55:58.128Z,3.70
2019-01-03T07:01:15.382Z,3.80
2019-01-03T07:06:29.714Z,3.80
2019-01-03T07:11:42.485Z,3.80
2019-01-03T07:17:00.260Z,3.80
2019-01-03T07:22:20.533Z,3.80
2019-01-03T07:27:46.628Z,3.90
2019-01-03T07:32:59.381Z,4.00
2019-01-03T07:38:12.260Z,4.00
2019-01-03T07:43:41.707Z,4.00
2019-01-03T07:48:56.047Z,3.90
2019-01-03T07:54:25.683Z,3.90
2019-01-03T07:59:45.873Z,4.00
2019-01-03T08:05:00.377Z,4.10
2019-01-03T08:10:13.419Z,4.20
2019-01-03T08:15:33.552Z,4.30
2019-01-03T08:20:50.987Z,4.40
2019-01-03T08:26:23.592Z,4.60
2019-01-03T08:31:36.196Z,4.80
2019-01-03T08:37:05.721Z,4.80
2019-01-03T08:42:23.087Z,4.90
2019-01-03T08:47:43.485Z,4.90
2019-01-03T08:53:00.916Z,5.00
2019-01-03T08:58:30.377Z,5.10
2019-01-03T09:03:44.758Z,5.20
2019-01-03T09:09:14.459Z,5.30
2019-01-03T09:14:31.939Z,5.40
2019-01-03T09:19:52.475Z,5.50
2019-01-03T09:25:21.809Z,5.60
2019-01-03T09:30:34.852Z,5.90
2019-01-03T09:35:58.670Z,6.20
2019-01-03T09:41:11.635Z,6.40
2019-01-03T09:46:07.117Z,6.70
2019-01-03T09:51:02.614Z,7.00
2019-01-03T09:55:58.129Z,7.20
2019-01-03T10:00:53.854Z,7.30
2019-01-03T10:05:49.343Z,7.20
2019-01-03T10:10:44.842Z,7.30
2019-01-03T10:15:40.293Z,7.40
2019-01-03T10:20:35.841Z,7.50
2019-01-03T10:25:31.325Z,7.60
2019-01-03T10:30:26.806Z,7.70
2019-01-03T10:35:22.291Z,7.90
2019-01-03T10:40:17.827Z,7.80
2019-01-03T10:45:13.313Z,7.50
2019-01-03T10:50:08.977Z,7.40
2019-01-03T10:55:05.779Z,7.20
2019-01-03T11:00:01.260Z,7.10
2019-01-03T11:04:56.743Z,7.10
2019-01-03T11:09:52.193Z,7.10
2019-01-03T11:14:47.656Z,7.00
2019-01-03T11:19:43.154Z,7.00
2019-01-03T11:24:38.780Z,7.00
2019-01-03T11:29:34.262Z,6.90
2019-01-03T11:34:29.768Z,6.90
2019-01-03T11:39:25.317Z,6.90
2019-01-03T11:44:20.883Z,7.20
2019-01-03T11:49:16.375Z,7.40
2019-01-03T11:54:11.885Z,7.50
2019-01-03T11:59:07.492Z,7.60
2019-01-03T12:04:02.995Z,7.50
2019-01-03T12:08:58.525Z,7.40
2019-01-03T12:13:54.083Z,7.30
2019-01-03T12:18:49.566Z,7.10
2019-01-03T12:23:45.052Z,6.90
2019-01-03T12:28:40.549Z,6.70
2019-01-03T12:33:36.057Z,6.60
2019-01-03T12:38:31.709Z,7.00
2019-01-03T12:43:28.511Z,7.30
2019-01-03T12:48:24.016Z,7.30
2019-01-03T12:53:19.574Z,7.20
2019-01-03T12:58:15.073Z,7.00
2019-01-03T13:03:10.736Z,6.90
2019-01-03T13:08:09.156Z,6.70
2019-01-03T13:13:04.685Z,6.80
2019-01-03T13:18:00.192Z,6.80
2019-01-03T13:22:59.042Z,6.70
2019-01-03T13:27:54.525Z,6.70
2019-01-03T13:32:50.030Z,6.60
2019-01-03T13:37:45.565Z,6.40
2019-01-03T13:42:41.038Z,6.30
2019-01-03T13:47:36.554Z,6.30
2019-01-03T13:52:32.049Z,6.20
2019-01-03T13:57:29.860Z,6.30
2019-01-03T14:02:25.412Z,6.30
2019-01-03T14:07:20.936Z,6.40
2019-01-03T14:12:18.128Z,6.40
2019-01-03T14:17:13.624Z,6.40
2019-01-03T14:22:09.232Z,6.40
2019-01-03T14:27:04.803Z,6.40
2019-01-03T14:32:00.268Z,6.30
2019-01-03T14:36:55.792Z,6.30
2019-01-03T14:41:51.304Z,6.20
2019-01-03T14:46:46.838Z,6.20
2019-01-03T14:51:42.460Z,6.10
2019-01-03T14:56:37.921Z,6.10
2019-01-03T15:01:33.532Z,6.00
2019-01-03T15:06:29.010Z,6.00
2019-01-03T15:11:24.530Z,6.00
2019-01-03T15:16:20.038Z,6.00
2019-01-03T15:21:15.515Z,6.10
2019-01-03T15:26:10.967Z,6.00
2019-01-03T15:31:06.443Z,6.00
2019-01-03T15:36:01.993Z,5.90
2019-01-03T15:40:57.509Z,5.80
2019-01-03T15:45:52.971Z,5.80
2019-01-03T15:50:48.480Z,5.80
2019-01-03T15:55:44.032Z,5.80
2019-01-03T16:00:39.546Z,5.80
2019-01-03T16:05:35.014Z,5.80
2019-01-03T16:10:30.486Z,5.80
2019-01-03T16:15:26.106Z,5.80
2019-01-03T16:20:21.585Z,5.80
2019-01-03T16:25:17.144Z,5.80
2019-01-03T16:30:12.867Z,5.70
2019-01-03T16:35:08.449Z,5.70
2019-01-03T16:40:04.013Z,5.70
2019-01-03T16:44:59.561Z,5.70
2019-01-03T16:49:56.071Z,5.60
2019-01-03T16:54:51.572Z,5.60
2019-01-03T16:59:47.088Z,5.60
2019-01-03T17:04:42.782Z,5.60
2019-01-03T17:09:38.245Z,5.70
2019-01-03T17:14:33.835Z,5.70
2019-01-03T17:19:29.316Z,5.70
2019-01-03T17:24:24.833Z,5.70
2019-01-03T17:29:20.341Z,5.60
2019-01-03T17:34:15.961Z,5.70
2019-01-03T17:39:11.477Z,5.60
2019-01-03T17:44:07.102Z,5.60
2019-01-03T17:49:02.566Z,5.60
2019-01-03T17:53:59.194Z,5.60
2019-01-03T17:58:54.863Z,5.60
2019-01-03T18:03:51.146Z,5.60
2019-01-03T18:08:46.720Z,5.60
2019-01-03T18:13:42.384Z,5.60
2019-01-03T18:18:37.881Z,5.60
2019-01-03T18:23:33.614Z,5.60
2019-01-03T18:28:29.056Z,5.60
2019-01-03T18:33:26.258Z,5.50
2019-01-03T18:38:21.775Z,5.50
2019-01-03T18:43:18.046Z,5.50
2019-01-03T18:48:14.164Z,5.50
2019-01-03T19:04:33.131Z,5.50
2019-01-03T19:09:28.620Z,5.60
2019-01-03T19:14:24.144Z,5.50
2019-01-03T19:19:19.609Z,5.50
2019-01-03T19:24:17.843Z,5.40
2019-01-03T19:29:13.331Z,5.40
2019-01-03T19:34:08.838Z,5.40
2019-01-03T19:39:04.971Z,5.40
2019-01-03T19:44:00.468Z,5.30
2019-01-03T19:48:55.926Z,5.30
2019-01-03T19:53:51.404Z,5.30
2019-01-03T19:58:46.881Z,5.30
2019-01-03T20:03:42.373Z,5.30
2019-01-03T20:08:37.971Z,5.30
2019-01-03T20:13:33.450Z,5.30
2019-01-03T20:18:29.010Z,5.30
2019-01-03T20:23:24.554Z,5.30
2019-01-03T20:28:20.046Z,5.30
2019-01-03T20:33:15.632Z,5.30
2019-01-03T20:38:11.114Z,5.30
2019-01-03T20:43:06.674Z,5.30
2019-01-03T20:48:02.205Z,5.30
2019-01-03T20:52:57.676Z,5.40
2019-01-03T20:57:53.183Z,5.30
2019-01-03T21:02:48.669Z,5.30
2019-01-03T21:07:44.180Z,5.30
2019-01-03T21:12:39.726Z,5.40
2019-01-03T21:17:35.185Z,5.40
2019-01-03T21:22:30.659Z,5.40
2019-01-03T21:27:26.121Z,5.30
2019-01-03T21:32:21.623Z,5.30
2019-01-03T21:37:17.181Z,5.30
2019-01-03T21:42:12.672Z,5.20
2019-01-03T21:47:08.214Z,5.10
2019-01-03T21:52:03.995Z,5.00
2019-01-03T21:57:00.175Z,5.00
2019-01-03T22:01:56.333Z,5.00
2019-01-03T22:06:52.550Z,5.10
2019-01-03T22:11:48.583Z,5.10
2019-01-03T22:16:44.098Z,5.00
2019-01-03T22:21:40.041Z,5.00
2019-01-03T22:26:35.878Z,5.00
2019-01-03T22:31:31.851Z,5.00
2019-01-03T22:36:28.109Z,5.10
2019-01-03T22:41:23.667Z,5.10
2019-01-03T22:46:20.301Z,5.10
2019-01-03T22:51:20.223Z,5.20
2019-01-03T22:56:14.961Z,5.10
2019-01-03T23:01:11.905Z,4.90
2019-01-03T23:06:08.141Z,4.80
2019-01-03T23:11:03.709Z,4.80
2019-01-03T23:15:59.533Z,4.80
2019-01-03T23:20:55.041Z,4.90
2019-01-03T23:25:50.875Z,4.90
2019-01-03T23:30:46.788Z,4.90
2019-01-03T23:35:42.300Z,5.00
2019-01-03T23:40:37.998Z,5.00
2019-01-03T23:45:33.803Z,5.00
2019-01-03T23:50:32.426Z,5.00
2019-01-03T23:55:28.570Z,5.10
